Time;durP1;ratioP1;P1;durP2;ratioP2;P2;SDS_P1;SDS_P2;PMS_P1;PMS_P2;Temp;Humidity;BMP_temperature;BMP_pressure;BME280_temperature;BME280_humidity;BME280_pressure;Samples;Min_cycle;Max_cycle;Signal;HPM_P1;HPM_P2
2021/03/30 00:00:25;;;;;;;19.33;12.35;;;;;;;11.52;39.61;100796.22;5037095;28;20436;-76
2021/03/30 00:02:50;;;;;;;16.90;11.60;;;;;;;11.59;39.25;100815.78;5037074;28;20068;-77
2021/03/30 00:05:16;;;;;;;14.80;10.18;;;;;;;11.02;39.81;100734.13;5035826;28;20115;-77
2021/03/30 00:07:42;;;;;;;12.45;9.10;;;;;;;11.62;39.74;100824.22;5036835;28;20083;-76
2021/03/30 00:10:12;;;;;;;8.60;6.93;;;;;;;11.55;39.89;100830.28;5035862;28;20037;-77
2021/03/30 00:12:37;;;;;;;23.30;14.35;;;;;;;11.34;40.17;100839.38;5036726;28;20029;-77
2021/03/30 00:15:05;;;;;;;19.15;11.85;;;;;;;11.17;39.84;100820.88;5036895;28;20029;-76
2021/03/30 00:17:30;;;;;;;13.25;8.60;;;;;;;10.81;40.29;100781.16;5036960;28;20352;-77
2021/03/30 00:19:56;;;;;;;11.07;7.72;;;;;;;10.90;39.95;100813.78;5036598;28;20033;-77
2021/03/30 00:22:21;;;;;;;11.32;7.90;;;;;;;11.01;40.51;100840.84;5036950;28;20041;-77
2021/03/30 00:24:46;;;;;;;11.10;6.93;;;;;;;10.95;40.09;100846.72;5036427;28;20061;-77
2021/03/30 00:27:12;;;;;;;8.50;6.88;;;;;;;10.35;40.38;100756.53;5036565;28;20032;-77
2021/03/30 00:29:43;;;;;;;10.63;6.78;;;;;;;10.77;40.42;100820.25;5036397;28;20352;-77
2021/03/30 00:32:13;;;;;;;8.88;6.75;;;;;;;10.61;40.61;100813.97;5036666;28;20029;-77
2021/03/30 00:34:38;;;;;;;9.30;6.65;;;;;;;10.20;40.91;100768.56;5035326;28;20438;-77
2021/03/30 00:37:04;;;;;;;9.88;6.85;;;;;;;10.36;40.65;100781.94;5036437;28;20113;-77
2021/03/30 00:39:30;;;;;;;7.30;5.72;;;;;;;10.63;40.76;100833.13;5035336;28;20359;-76
2021/03/30 00:41:55;;;;;;;7.70;6.15;;;;;;;10.69;40.34;100843.94;5036242;28;20043;-76
2021/03/30 00:44:21;;;;;;;7.00;5.75;;;;;;;10.34;40.74;100804.19;5035693;28;20025;-77
2021/03/30 00:46:48;;;;;;;7.45;5.97;;;;;;;10.63;40.84;100854.25;5036111;28;20021;-77
2021/03/30 00:49:15;;;;;;;6.78;5.82;;;;;;;10.55;40.96;100836.50;5036264;28;20031;-77
2021/03/30 00:51:41;;;;;;;9.05;6.15;;;;;;;10.24;40.84;100791.03;5035787;28;20032;-77
2021/03/30 00:54:06;;;;;;;14.70;7.53;;;;;;;10.53;40.65;100840.28;5036165;28;20328;-77
2021/03/30 00:56:32;;;;;;;8.38;6.57;;;;;;;10.12;40.67;100785.09;5036069;28;20028;-77
2021/03/30 00:59:00;;;;;;;7.35;5.93;;;;;;;10.32;41.02;100812.25;5034788;28;20037;-77
2021/03/30 01:01:25;;;;;;;7.93;5.72;;;;;;;10.40;41.10;100836.16;5036043;28;20112;-77
2021/03/30 01:03:51;;;;;;;6.65;5.50;;;;;;;10.26;41.10;100831.31;5035720;28;20111;-77
2021/03/30 01:06:16;;;;;;;8.73;5.47;;;;;;;10.33;41.33;100842.97;5035784;28;20072;-77
2021/03/30 01:09:06;;;;;;;9.48;5.93;;;;;;;10.27;41.13;100837.44;5034585;28;20044;-77
2021/03/30 01:12:09;;;;;;;11.18;6.20;;;;;;;10.17;41.44;100834.78;5035722;28;20099;-77
2021/03/30 01:15:00;;;;;;;7.65;6.05;;;;;;;10.08;41.78;100827.72;5035692;28;20049;-76
2021/03/30 01:17:26;;;;;;;8.10;6.13;;;;;;;10.02;40.86;100836.22;5034620;28;20124;-77
2021/03/30 01:19:57;;;;;;;7.53;5.70;;;;;;;10.00;41.74;100839.00;5035442;28;20264;-77
2021/03/30 01:22:41;;;;;;;6.25;5.18;;;;;;;9.95;42.01;100833.31;5034429;28;20029;-77
2021/03/30 01:25:08;;;;;;;7.97;5.18;;;;;;;9.45;41.83;100764.97;5034494;28;20037;-79
2021/03/30 01:27:50;;;;;;;8.55;5.82;;;;;;;9.89;41.73;100831.25;5034211;28;20021;-77
2021/03/30 01:30:17;;;;;;;;;;;;;;;9.70;42.15;100829.47;5035949;28;20038;-77
2021/03/30 01:32:47;;;;;;;10.50;6.78;;;;;;;9.57;41.63;100807.81;5034113;28;19909;-77
2021/03/30 01:35:24;;;;;;;8.95;6.25;;;;;;;9.73;42.16;100820.47;5034236;28;20022;-77
2021/03/30 01:37:51;;;;;;;7.07;5.07;;;;;;;9.73;42.06;100829.19;5035040;28;20036;-77
2021/03/30 01:40:30;;;;;;;8.13;5.45;;;;;;;9.55;42.36;100804.50;5035247;28;20459;-77
2021/03/30 01:42:56;;;;;;;8.90;5.55;;;;;;;9.30;42.47;100774.28;5034983;28;20048;-77
2021/03/30 01:45:23;;;;;;;7.53;5.50;;;;;;;9.64;42.38;100834.47;5035025;28;20060;-77
2021/03/30 01:47:51;;;;;;;5.97;5.38;;;;;;;9.62;42.47;100831.97;5034955;28;20028;-76
2021/03/30 01:50:17;;;;;;;6.78;5.20;;;;;;;9.61;42.63;100840.00;5034972;28;20027;-76
2021/03/30 01:52:43;;;;;;;8.25;4.82;;;;;;;9.59;42.67;100824.34;5034814;28;20029;-77
2021/03/30 01:55:12;;;;;;;7.47;5.20;;;;;;;9.57;42.54;100821.84;5034155;28;20024;-76
2021/03/30 01:57:39;;;;;;;6.88;5.90;;;;;;;9.60;42.12;100828.63;5034876;28;20435;-77
2021/03/30 02:00:09;;;;;;;8.55;5.88;;;;;;;8.84;42.76;100703.81;5035066;28;20029;-76
2021/03/30 02:02:35;;;;;;;8.20;5.88;;;;;;;9.18;42.61;100770.13;5035053;28;20025;-77
2021/03/30 02:05:01;;;;;;;9.02;5.82;;;;;;;8.81;42.69;100719.88;5034891;28;20033;-76
2021/03/30 02:07:28;;;;;;;8.02;5.80;;;;;;;9.38;42.95;100813.94;5034809;28;20132;-76
2021/03/30 02:09:58;;;;;;;10.45;5.80;;;;;;;9.17;42.70;100789.53;5034658;28;20029;-76
2021/03/30 02:12:30;;;;;;;9.18;6.47;;;;;;;9.15;42.86;100802.84;5033871;28;20033;-76
2021/03/30 02:14:56;;;;;;;6.32;5.53;;;;;;;9.13;43.34;100809.22;5034657;28;20029;-76
2021/03/30 02:17:59;;;;;;;8.38;5.75;;;;;;;9.04;43.18;100817.94;5034831;28;20098;-76
2021/03/30 02:20:28;;;;;;;6.20;4.68;;;;;;;8.92;43.24;100822.50;5034665;28;20056;-76
2021/03/30 02:23:02;;;;;;;7.18;4.63;;;;;;;8.95;43.16;100824.03;5034487;28;20036;-76
2021/03/30 02:25:29;;;;;;;7.10;4.75;;;;;;;8.76;43.72;100815.09;5034767;28;20064;-77
2021/03/30 02:27:56;;;;;;;6.03;4.95;;;;;;;8.58;43.67;100778.06;5033424;28;20025;-76
2021/03/30 02:30:25;;;;;;;5.55;4.95;;;;;;;8.64;43.52;100800.38;5034541;28;20029;-76
2021/03/30 02:32:52;;;;;;;6.93;5.80;;;;;;;8.28;43.42;100746.50;5033235;28;20029;-76
2021/03/30 02:35:20;;;;;;;7.90;5.55;;;;;;;8.67;43.79;100822.97;5034542;28;20030;-76
2021/03/30 02:37:46;;;;;;;6.90;5.40;;;;;;;8.76;43.36;100823.00;5034386;28;20044;-76
2021/03/30 02:40:15;;;;;;;7.03;5.70;;;;;;;8.35;43.73;100770.50;5034630;28;20022;-76
2021/03/30 02:42:43;;;;;;;8.15;5.68;;;;;;;8.66;44.14;100826.56;5033573;28;20028;-76
2021/03/30 02:45:14;;;;;;;9.05;6.20;;;;;;;8.54;43.93;100813.53;5033120;28;20083;-75
2021/03/30 02:47:43;;;;;;;10.13;6.63;;;;;;;8.59;43.52;100829.75;5034393;28;20029;-76
2021/03/30 02:50:10;;;;;;;7.85;6.30;;;;;;;8.37;44.22;100787.84;5034425;28;20367;-76
2021/03/30 02:52:36;;;;;;;39.50;21.38;;;;;;;8.62;44.04;100830.44;5034297;28;20069;-76
2021/03/30 02:55:04;;;;;;;10.68;7.65;;;;;;;8.43;43.72;100804.88;5034214;28;20021;-76
2021/03/30 02:57:30;;;;;;;9.10;6.60;;;;;;;8.50;43.75;100825.28;5034440;28;20025;-76
2021/03/30 02:59:56;;;;;;;8.73;5.82;;;;;;;8.49;44.12;100831.50;5034079;28;20037;-76
2021/03/30 03:02:26;;;;;;;8.95;6.00;;;;;;;8.51;43.95;100824.31;5034271;28;20447;-76
2021/03/30 03:04:52;;;;;;;8.15;5.97;;;;;;;8.51;43.94;100823.47;5033982;28;20087;-76
2021/03/30 03:07:18;;;;;;;7.65;5.15;;;;;;;8.39;43.83;100806.97;5036214;28;20104;-76
2021/03/30 03:09:44;;;;;;;8.35;6.07;;;;;;;8.22;44.01;100778.59;5037865;28;20435;-76
2021/03/30 03:12:12;;;;;;;7.82;6.50;;;;;;;8.37;44.55;100815.94;5037928;28;20028;-76
2021/03/30 03:14:40;;;;;;;8.60;7.50;;;;;;;8.47;44.56;100817.66;5037748;28;20013;-76
2021/03/30 03:17:07;;;;;;;10.60;7.40;;;;;;;8.43;44.44;100818.06;5037780;28;20037;-75
2021/03/30 03:19:35;;;;;;;12.73;7.63;;;;;;;8.21;43.92;100811.16;5037749;28;20127;-77
2021/03/30 03:22:03;;;;;;;8.43;6.63;;;;;;;7.94;44.71;100772.22;5037681;28;20104;-77
2021/03/30 03:24:28;;;;;;;10.68;6.00;;;;;;;8.21;44.79;100822.50;5036615;28;20452;-76
2021/03/30 03:26:54;;;;;;;10.35;6.13;;;;;;;8.23;44.92;100820.56;5037600;28;20052;-76
2021/03/30 03:29:20;;;;;;;7.80;6.20;;;;;;;8.27;44.20;100821.97;5037532;28;20025;-76
2021/03/30 03:31:47;;;;;;;12.10;7.03;;;;;;;7.95;44.82;100768.63;5037505;28;20036;-76
2021/03/30 03:34:13;;;;;;;12.07;7.45;;;;;;;8.14;44.48;100807.34;5037418;28;20061;-76
2021/03/30 03:36:41;;;;;;;14.20;7.28;;;;;;;7.75;44.87;100748.47;5037508;28;20021;-77
2021/03/30 03:39:09;;;;;;;16.38;7.95;;;;;;;8.25;44.77;100817.81;5037401;28;20028;-78
2021/03/30 03:41:35;;;;;;;12.65;9.10;;;;;;;8.06;44.19;100789.59;5037388;28;20027;-76
2021/03/30 03:44:01;;;;;;;10.10;8.20;;;;;;;8.09;44.41;100789.31;5037048;28;20033;-77
2021/03/30 03:46:27;;;;;;;11.30;8.05;;;;;;;8.21;44.57;100813.78;5037232;28;20026;-79
2021/03/30 03:48:52;;;;;;;9.25;7.93;;;;;;;8.19;44.61;100813.91;5037209;28;20025;-77
2021/03/30 03:51:18;;;;;;;9.35;7.03;;;;;;;7.59;44.24;100718.22;5037220;28;20344;-76
2021/03/30 03:53:46;;;;;;;11.50;7.72;;;;;;;8.16;44.61;100816.78;5037118;28;20033;-77
2021/03/30 03:56:15;;;;;;;12.48;7.80;;;;;;;8.08;45.06;100807.88;5037045;28;20033;-76
2021/03/30 03:58:48;;;;;;;11.68;7.78;;;;;;;8.13;44.77;100816.19;5036966;28;20056;-77
2021/03/30 04:01:20;;;;;;;12.13;7.82;;;;;;;8.07;44.87;100827.25;5037167;28;20041;-77
2021/03/30 04:03:53;;;;;;;11.45;8.50;;;;;;;8.05;44.73;100822.13;5036895;28;20041;-76
2021/03/30 04:06:22;;;;;;;12.35;9.18;;;;;;;7.54;44.55;100746.69;5036837;28;20025;-76
2021/03/30 04:08:56;;;;;;;12.82;8.55;;;;;;;8.06;45.03;100825.56;5036879;28;20033;-77
2021/03/30 04:11:22;;;;;;;15.25;9.68;;;;;;;7.97;44.54;100817.50;5036792;28;20036;-76
2021/03/30 04:13:50;;;;;;;15.88;11.45;;;;;;;7.97;45.17;100819.31;5036670;28;20041;-77
2021/03/30 04:16:16;;;;;;;18.70;12.43;;;;;;;7.74;44.87;100791.50;5035721;28;20033;-77
2021/03/30 04:18:43;;;;;;;18.83;11.82;;;;;;;7.95;44.80;100837.84;5034855;28;20024;-77
2021/03/30 04:21:32;;;;;;;19.42;11.48;;;;;;;7.79;45.40;100829.56;5036691;28;20442;-76
2021/03/30 04:24:01;;;;;;;20.90;12.80;;;;;;;7.75;44.54;100817.66;5036510;28;20036;-76
2021/03/30 04:26:28;;;;;;;22.33;15.40;;;;;;;8.00;45.17;100845.34;5036640;28;20390;-77
2021/03/30 04:28:53;;;;;;;22.90;16.23;;;;;;;8.03;44.91;100850.34;5035390;28;20355;-77
2021/03/30 04:31:19;;;;;;;28.83;19.17;;;;;;;8.10;44.71;100863.81;5036657;28;20033;-77
2021/03/30 04:33:44;;;;;;;29.70;21.25;;;;;;;8.03;44.48;100831.94;5036332;28;20029;-76
2021/03/30 04:36:10;;;;;;;31.35;20.35;;;;;;;8.17;44.48;100847.38;5035512;28;20032;-76
2021/03/30 04:38:35;;;;;;;32.92;22.05;;;;;;;8.19;44.23;100840.22;5036453;28;20036;-76
2021/03/30 04:41:01;;;;;;;35.88;24.80;;;;;;;8.21;44.20;100842.72;5036157;28;20029;-76
2021/03/30 04:43:26;;;;;;;37.60;27.67;;;;;;;7.93;44.91;100817.91;5036320;28;20035;-76
2021/03/30 04:45:52;;;;;;;39.28;28.92;;;;;;;7.65;44.93;100759.75;5034916;28;20424;-76
2021/03/30 04:48:18;;;;;;;37.28;27.73;;;;;;;8.15;44.98;100846.66;5036350;28;20038;-76
2021/03/30 04:50:44;;;;;;;31.45;25.30;;;;;;;7.52;44.94;100742.53;5034943;28;20076;-77
2021/03/30 04:53:10;;;;;;;35.58;24.95;;;;;;;7.71;44.91;100762.84;5036041;28;20025;-76
2021/03/30 04:55:36;;;;;;;30.55;20.85;;;;;;;8.23;44.33;100846.06;5035995;28;20101;-75
2021/03/30 04:58:02;;;;;;;41.55;26.85;;;;;;;8.26;44.74;100853.69;5035866;28;20108;-76
2021/03/30 05:00:28;;;;;;;22.00;16.35;;;;;;;8.26;44.72;100851.88;5035894;28;20486;-76
2021/03/30 05:02:53;;;;;;;24.42;15.75;;;;;;;8.01;44.57;100804.94;5035826;28;20391;-76
2021/03/30 05:05:19;;;;;;;27.10;18.10;;;;;;;8.33;44.42;100856.63;5035676;28;20116;-76
2021/03/30 05:07:45;;;;;;;27.77;17.98;;;;;;;8.19;44.66;100844.66;5034663;28;20112;-76
2021/03/30 05:10:11;;;;;;;28.25;18.75;;;;;;;8.22;44.18;100845.22;5035585;28;20104;-76
2021/03/30 05:12:37;;;;;;;28.05;19.35;;;;;;;8.32;44.49;100858.41;5035517;28;20025;-76
2021/03/30 05:15:03;;;;;;;27.50;18.13;;;;;;;7.77;44.38;100791.22;5035340;28;20025;-76
2021/03/30 05:17:29;;;;;;;25.63;18.42;;;;;;;8.11;44.94;100847.91;5034474;28;20076;-76
2021/03/30 05:19:54;;;;;;;24.73;17.70;;;;;;;7.83;45.31;100806.50;5035356;28;20115;-76
2021/03/30 05:22:20;;;;;;;30.45;19.70;;;;;;;8.14;45.16;100858.16;5035534;28;20025;-76
2021/03/30 05:24:45;;;;;;;32.95;20.80;;;;;;;7.87;45.38;100836.81;5035139;28;20029;-76
2021/03/30 05:27:10;;;;;;;29.83;20.40;;;;;;;7.53;44.97;100789.72;5035372;28;20038;-77
2021/03/30 05:29:45;;;;;;;39.85;23.77;;;;;;;7.54;45.51;100793.16;5035355;28;20029;-76
2021/03/30 05:32:15;;;;;;;43.45;23.92;;;;;;;7.87;46.11;100871.84;5035378;28;20035;-76
2021/03/30 05:34:42;;;;;;;37.47;21.35;;;;;;;7.80;46.05;100870.69;5034121;28;20029;-76
2021/03/30 05:37:08;;;;;;;32.38;21.55;;;;;;;7.90;45.75;100870.75;5035034;28;20025;-77
2021/03/30 05:39:33;;;;;;;31.55;19.35;;;;;;;7.97;46.12;100877.16;5035041;28;20120;-76
2021/03/30 05:41:59;;;;;;;40.90;24.50;;;;;;;8.08;45.50;100874.47;5034971;28;20039;-76
2021/03/30 05:44:27;;;;;;;35.40;21.38;;;;;;;8.24;45.57;100881.91;5034903;28;20048;-76
2021/03/30 05:49:30;;;;;;;24.40;19.25;;;;;;;8.44;45.02;100854.75;5035017;28;20033;-76
2021/03/30 05:51:59;;;;;;;27.40;21.15;;;;;;;8.48;45.07;100856.16;5032876;28;20381;-76
2021/03/30 05:54:27;;;;;;;41.58;23.48;;;;;;;8.73;44.93;100865.41;5033399;28;20032;-77
2021/03/30 05:56:52;;;;;;;37.95;25.77;;;;;;;8.64;44.97;100841.66;5037188;28;20035;-77
2021/03/30 05:59:21;;;;;;;33.72;22.70;;;;;;;8.98;44.53;100866.75;5054536;28;20093;-78
2021/03/30 06:01:50;;;;;;;31.50;22.35;;;;;;;9.15;44.99;100866.09;5043549;28;20112;-77
2021/03/30 06:04:17;;;;;;;33.13;22.63;;;;;;;9.19;45.28;100864.00;5034575;28;20033;-77
2021/03/30 06:06:43;;;;;;;39.53;26.90;;;;;;;8.76;45.25;100778.22;5034509;28;20318;-76
2021/03/30 06:09:09;;;;;;;38.53;26.83;;;;;;;9.33;45.15;100852.22;5034656;28;20083;-77
2021/03/30 06:11:35;;;;;;;44.83;30.38;;;;;;;9.55;44.59;100863.31;5033591;28;20056;-76
2021/03/30 06:14:00;;;;;;;47.95;31.73;;;;;;;9.72;44.68;100859.19;5045654;28;20053;-76
2021/03/30 06:16:26;;;;;;;50.00;33.78;;;;;;;9.74;44.42;100865.16;5054500;28;20376;-76
2021/03/30 06:19:13;;;;;;;44.90;27.85;;;;;;;9.79;44.57;100855.00;5054254;28;20029;-77
2021/03/30 06:21:44;;;;;;;34.25;23.35;;;;;;;9.66;44.25;100814.91;5046776;28;20029;-77
2021/03/30 06:24:33;;;;;;;35.15;23.02;;;;;;;10.12;43.57;100861.63;5035636;28;20088;-76
2021/03/30 06:27:04;;;;;;;33.70;23.73;;;;;;;10.28;42.97;100873.41;5034359;28;20029;-77
2021/03/30 06:29:37;;;;;;;29.95;22.25;;;;;;;10.42;43.04;100867.69;5033429;28;20343;-77
2021/03/30 06:32:08;;;;;;;20.75;14.25;;;;;;;10.51;40.66;100874.75;5034124;28;20033;-76
2021/03/30 06:34:35;;;;;;;10.13;7.20;;;;;;;10.60;41.02;100876.50;5033217;28;20410;-76
2021/03/30 06:37:00;;;;;;;12.02;7.07;;;;;;;10.10;40.78;100763.28;5049966;28;20037;-76
2021/03/30 06:39:38;;;;;;;8.02;6.22;;;;;;;10.59;38.27;100827.31;5054354;28;20090;-77
2021/03/30 06:44:35;;;;;;;6.97;5.97;;;;;;;10.92;38.25;100864.69;5035168;28;20087;-77
2021/03/30 06:47:04;;;;;;;7.60;5.03;;;;;;;11.09;37.79;100882.38;5039756;28;20041;-77
2021/03/30 06:49:32;;;;;;;9.20;5.47;;;;;;;11.09;37.98;100856.78;5034292;28;20034;-77
2021/03/30 06:51:58;;;;;;;11.57;8.35;;;;;;;11.21;37.92;100878.56;5034929;28;20069;-77
2021/03/30 06:54:24;;;;;;;8.18;6.95;;;;;;;11.24;37.48;100862.41;5030984;28;20029;-78
2021/03/30 06:56:55;;;;;;;11.57;7.35;;;;;;;11.41;37.17;100871.34;5037116;28;20033;-76
2021/03/30 06:59:22;;;;;;;9.02;5.43;;;;;;;11.40;37.15;100869.66;5037340;28;20037;-78
2021/03/30 07:01:53;;;;;;;13.15;5.30;;;;;;;11.33;36.76;100847.47;5035971;28;20402;-78
2021/03/30 07:04:19;;;;;;;8.30;5.23;;;;;;;11.55;37.68;100897.25;5034194;28;20052;-80
2021/03/30 07:06:53;;;;;;;10.50;5.45;;;;;;;10.99;36.92;100786.47;5036622;28;20053;-76
2021/03/30 07:09:20;;;;;;;7.90;6.15;;;;;;;11.40;37.23;100845.88;5033955;28;20397;-76
2021/03/30 07:11:46;;;;;;;8.05;5.75;;;;;;;11.37;37.12;100823.19;5036270;28;20426;-76
2021/03/30 07:14:12;;;;;;;9.55;6.10;;;;;;;11.59;36.94;100847.53;5033005;28;20034;-77
2021/03/30 07:16:53;;;;;;;7.82;6.03;;;;;;;11.90;37.02;100893.81;5038956;28;20093;-76
2021/03/30 07:19:23;;;;;;;6.28;5.57;;;;;;;11.86;37.65;100887.13;5037543;28;20109;-76
2021/03/30 07:22:10;;;;;;;7.60;5.80;;;;;;;11.95;37.53;100888.88;5037998;28;20083;-77
2021/03/30 07:24:42;;;;;;;8.82;6.50;;;;;;;11.99;37.01;100879.66;5026973;28;20034;-76
2021/03/30 07:27:16;;;;;;;6.07;5.47;;;;;;;11.83;37.37;100842.44;5032891;28;20029;-76
2021/03/30 07:29:49;;;;;;;9.98;6.63;;;;;;;11.74;37.13;100825.66;5034682;28;20034;-77
2021/03/30 07:32:52;;;;;;;9.77;6.60;;;;;;;12.23;37.30;100873.69;5041559;28;20025;-76
2021/03/30 07:35:22;;;;;;;10.13;5.97;;;;;;;12.24;37.70;100862.09;5033397;28;20044;-79
2021/03/30 07:38:26;;;;;;;10.18;6.35;;;;;;;12.44;37.58;100878.59;5035207;28;20027;-78
2021/03/30 07:40:51;;;;;;;10.57;6.63;;;;;;;12.03;37.24;100795.47;5017716;28;20345;-78
2021/03/30 07:43:25;;;;;;;10.02;6.35;;;;;;;12.49;37.12;100873.66;5051795;28;20037;-76
2021/03/30 07:45:53;;;;;;;10.15;6.57;;;;;;;12.27;37.23;100831.84;5056746;28;20097;-76
2021/03/30 07:48:21;;;;;;;10.02;7.78;;;;;;;12.65;36.96;100873.78;5045219;28;20112;-76
2021/03/30 07:51:08;;;;;;;11.00;6.97;;;;;;;12.66;37.20;100875.44;5030693;28;20032;-76
2021/03/30 07:53:54;;;;;;;10.50;7.15;;;;;;;12.58;36.96;100870.06;5035790;28;20025;-75
2021/03/30 07:56:26;;;;;;;8.77;7.10;;;;;;;12.76;37.66;100879.78;5031954;28;20021;-77
2021/03/30 07:58:54;;;;;;;9.20;7.03;;;;;;;12.77;37.55;100866.38;5038927;28;20032;-76
2021/03/30 08:01:29;;;;;;;13.50;7.60;;;;;;;12.89;37.48;100864.25;5037905;28;20044;-77
2021/03/30 08:03:55;;;;;;;10.80;8.23;;;;;;;12.94;37.15;100872.56;5036249;28;20060;-77
2021/03/30 08:06:34;;;;;;;10.82;7.80;;;;;;;13.08;37.33;100857.84;5039669;28;20079;-77
2021/03/30 08:09:06;;;;;;;8.93;7.78;;;;;;;13.07;37.38;100869.44;5034746;28;20061;-76
2021/03/30 08:11:43;;;;;;;13.20;9.05;;;;;;;13.20;36.67;100862.72;5036497;28;20423;-76
2021/03/30 08:14:19;;;;;;;14.65;8.98;;;;;;;13.30;36.74;100854.59;5034605;28;20028;-77
2021/03/30 08:16:48;;;;;;;14.52;9.75;;;;;;;13.44;36.37;100853.16;5030978;28;20025;-78
2021/03/30 08:19:15;;;;;;;11.35;8.90;;;;;;;13.25;36.41;100804.69;5040458;28;20014;-76
2021/03/30 08:22:07;;;;;;;13.68;8.98;;;;;;;13.61;35.84;100857.47;5033873;28;20025;-76
2021/03/30 08:24:44;;;;;;;12.18;9.20;;;;;;;13.71;35.73;100852.00;5026129;28;20025;-76
2021/03/30 08:27:45;;;;;;;11.55;9.27;;;;;;;13.78;35.84;100853.81;5034553;28;20112;-77
2021/03/30 08:30:26;;;;;;;14.88;10.45;;;;;;;13.76;35.67;100853.16;4995553;28;20124;-76
2021/03/30 08:32:54;;;;;;;13.68;11.23;;;;;;;13.77;35.44;100838.06;5021647;28;20517;-76
2021/03/30 08:35:30;;;;;;;17.45;12.70;;;;;;;13.97;34.58;100845.50;5036312;28;20017;-76
2021/03/30 08:37:57;;;;;;;22.83;11.77;;;;;;;14.05;34.78;100836.69;5047144;28;20100;-78
2021/03/30 08:40:36;;;;;;;15.77;11.02;;;;;;;14.24;35.02;100862.91;5025468;28;20406;-77
2021/03/30 08:43:23;;;;;;;18.90;11.80;;;;;;;14.22;34.45;100838.34;5035906;28;20029;-76
2021/03/30 08:46:11;;;;;;;12.88;11.10;;;;;;;14.32;33.95;100849.59;5036037;28;20027;-78
2021/03/30 08:48:42;;;;;;;13.77;11.68;;;;;;;14.45;34.61;100845.63;5038404;28;20021;-77
2021/03/30 08:51:15;;;;;;;14.23;10.68;;;;;;;14.43;34.04;100844.97;5048014;28;20765;-78
2021/03/30 08:53:41;;;;;;;18.33;12.90;;;;;;;14.72;34.12;100845.19;5036937;28;20037;-76
2021/03/30 08:56:11;;;;;;;14.77;11.73;;;;;;;14.89;33.64;100845.97;5035375;28;20037;-80
2021/03/30 08:58:44;;;;;;;16.02;12.68;;;;;;;15.06;33.19;100836.88;5035865;28;20029;-77
2021/03/30 09:01:11;;;;;;;15.13;11.38;;;;;;;15.23;33.51;100843.75;5033153;28;20029;-76
2021/03/30 09:03:37;;;;;;;15.77;11.50;;;;;;;15.46;32.99;100848.25;5053033;28;20477;-77
2021/03/30 09:06:03;;;;;;;19.20;14.60;;;;;;;15.57;33.08;100805.25;5048252;28;20040;-77
2021/03/30 09:08:40;;;;;;;16.83;12.63;;;;;;;15.63;31.65;100799.25;5050044;28;20040;-76
2021/03/30 09:11:25;;;;;;;19.35;12.82;;;;;;;16.05;31.70;100838.63;5054225;28;20029;-76
2021/03/30 09:14:05;;;;;;;20.10;12.82;;;;;;;16.16;31.46;100826.69;5035193;28;20101;-77
2021/03/30 09:16:32;;;;;;;13.93;11.40;;;;;;;16.26;31.83;100819.25;5033657;28;20025;-76
2021/03/30 09:19:25;;;;;;;17.65;11.55;;;;;;;16.38;31.25;100836.47;5031391;28;20025;-76
2021/03/30 09:22:06;;;;;;;15.60;11.43;;;;;;;16.10;31.19;100772.31;5031701;28;20029;-79
2021/03/30 09:27:07;;;;;;;18.83;12.30;;;;;;;16.71;31.26;100834.25;5033769;28;20033;-78
2021/03/30 09:29:35;;;;;;;17.70;12.43;;;;;;;16.56;31.05;100816.59;5046688;28;20030;-77
2021/03/30 09:32:05;;;;;;;20.63;14.85;;;;;;;16.51;31.02;100818.00;5033047;28;20186;-77
2021/03/30 09:34:31;;;;;;;59.58;51.25;;;;;;;16.42;30.89;100760.44;5029736;28;20033;-77
2021/03/30 09:36:58;;;;;;;14.93;12.65;;;;;;;16.98;30.76;100815.91;5034006;28;20040;-78
2021/03/30 09:39:28;;;;;;;15.38;11.88;;;;;;;16.92;30.34;100803.31;5035097;28;20087;-78
2021/03/30 09:41:56;;;;;;;15.95;12.73;;;;;;;17.14;30.14;100821.03;5034881;28;20029;-77
2021/03/30 09:44:23;;;;;;;16.38;11.90;;;;;;;17.04;29.46;100773.28;5045514;28;20030;-78
2021/03/30 09:46:51;;;;;;;19.17;12.70;;;;;;;16.76;29.62;100759.84;5033963;28;20073;-77
2021/03/30 09:49:20;;;;;;;14.55;11.57;;;;;;;16.76;30.26;100813.19;5031156;28;20040;-77
2021/03/30 09:51:46;;;;;;;14.48;12.60;;;;;;;16.72;30.03;100808.44;5037379;28;20108;-78
2021/03/30 09:54:22;;;;;;;14.80;12.32;;;;;;;16.69;30.23;100806.13;5051239;28;20021;-78
2021/03/30 09:56:54;;;;;;;17.95;12.65;;;;;;;16.81;29.74;100794.78;5034740;28;20398;-77
2021/03/30 09:59:21;;;;;;;14.23;11.80;;;;;;;16.93;29.71;100778.28;5034508;28;20029;-77
2021/03/30 10:01:47;;;;;;;20.75;11.98;;;;;;;17.13;29.74;100798.03;5033555;28;20020;-77
2021/03/30 10:04:12;;;;;;;16.98;13.05;;;;;;;17.47;29.19;100798.13;5031031;28;20025;-75
2021/03/30 10:06:38;;;;;;;17.25;14.02;;;;;;;17.41;28.42;100796.25;5030204;28;20021;-78
2021/03/30 10:09:07;;;;;;;16.60;13.00;;;;;;;17.06;28.68;100792.59;5028640;28;20029;-77
2021/03/30 10:11:35;;;;;;;17.05;13.00;;;;;;;17.19;28.66;100804.44;5044130;28;20029;-77
2021/03/30 10:14:21;;;;;;;24.83;16.83;;;;;;;17.46;28.39;100784.97;5033039;28;20026;-77
2021/03/30 10:16:47;;;;;;;20.23;13.63;;;;;;;17.56;28.56;100787.31;5031928;28;20428;-78
2021/03/30 10:19:14;;;;;;;22.73;15.57;;;;;;;17.73;27.93;100792.22;5032763;28;20467;-77
2021/03/30 10:21:41;;;;;;;21.23;13.88;;;;;;;17.72;27.95;100789.75;5028293;28;20022;-77
2021/03/30 10:24:12;;;;;;;17.63;14.05;;;;;;;18.00;27.23;100784.41;5014436;28;20034;-77
2021/03/30 10:26:38;;;;;;;13.35;12.00;;;;;;;18.27;27.24;100782.72;5014991;28;20029;-78
2021/03/30 10:29:06;;;;;;;14.52;10.70;;;;;;;18.53;26.74;100784.69;5030321;28;20029;-78
2021/03/30 10:34:02;;;;;;;12.43;10.27;;;;;;;19.32;25.92;100772.41;5030788;28;20104;-77
2021/03/30 10:36:28;;;;;;;12.73;11.13;;;;;;;19.53;25.74;100765.22;5030785;28;20536;-78
2021/03/30 10:39:02;;;;;;;12.60;10.35;;;;;;;19.40;25.33;100757.16;5033075;28;20032;-78
2021/03/30 10:41:33;;;;;;;15.77;12.65;;;;;;;19.19;25.29;100736.72;5034079;28;20032;-77
2021/03/30 10:43:59;;;;;;;14.43;10.90;;;;;;;19.46;25.76;100742.94;5033050;28;20025;-78
2021/03/30 10:46:25;;;;;;;21.77;11.60;;;;;;;19.79;25.37;100777.78;5031963;28;20351;-78
2021/03/30 10:49:06;;;;;;;14.50;10.40;;;;;;;19.86;24.05;100763.31;5026809;28;20121;-77
2021/03/30 10:51:34;;;;;;;15.63;10.90;;;;;;;19.70;25.13;100763.75;5033289;28;20064;-77
2021/03/30 10:54:01;;;;;;;14.20;10.52;;;;;;;19.78;25.10;100750.16;5031105;28;20408;-77
2021/03/30 10:56:31;;;;;;;11.25;9.30;;;;;;;19.98;24.28;100739.38;5032867;28;20017;-78
2021/03/30 10:58:56;;;;;;;25.73;12.57;;;;;;;19.36;24.95;100716.56;5033815;28;20041;-78
2021/03/30 11:01:22;;;;;;;14.27;10.98;;;;;;;18.58;25.44;100677.91;5033959;28;20352;-77
2021/03/30 11:03:47;;;;;;;10.90;9.70;;;;;;;18.30;25.96;100710.13;5032949;28;20076;-78
2021/03/30 11:06:13;;;;;;;12.55;10.70;;;;;;;19.04;25.82;100737.75;5033584;28;20025;-77
2021/03/30 11:08:38;;;;;;;12.98;10.73;;;;;;;19.35;25.17;100694.31;5031258;28;20026;-77
2021/03/30 11:11:04;;;;;;;17.88;10.38;;;;;;;19.31;24.74;100679.66;5032176;28;20025;-77
2021/03/30 11:13:29;;;;;;;13.10;10.48;;;;;;;19.93;24.45;100731.97;5033783;28;20032;-77
2021/03/30 11:15:55;;;;;;;14.18;11.38;;;;;;;19.84;24.40;100700.25;5033721;28;20089;-79
2021/03/30 11:18:20;;;;;;;14.23;9.45;;;;;;;19.99;23.85;100664.09;5033258;28;20147;-77
2021/03/30 11:20:46;;;;;;;13.38;11.10;;;;;;;20.29;23.45;100704.66;5032863;28;20451;-77
2021/03/30 11:23:11;;;;;;;12.30;10.32;;;;;;;20.10;24.01;100708.22;5033694;28;20026;-78
2021/03/30 11:25:38;;;;;;;13.15;11.40;;;;;;;19.64;24.41;100725.22;5033648;28;20032;-77
2021/03/30 11:28:06;;;;;;;17.42;11.82;;;;;;;18.94;24.61;100710.56;5032953;28;20033;-77
2021/03/30 11:30:46;;;;;;;13.48;10.30;;;;;;;18.39;25.18;100682.19;5037257;28;20380;-79
2021/03/30 11:33:18;;;;;;;14.65;10.75;;;;;;;18.08;25.58;100698.72;5033686;28;20117;-78
2021/03/30 11:35:47;;;;;;;14.25;12.43;;;;;;;18.57;25.70;100703.00;5042291;28;20470;-78
2021/03/30 11:38:13;;;;;;;14.63;10.38;;;;;;;18.66;25.34;100677.78;5036196;28;20517;-77
2021/03/30 11:40:39;;;;;;;14.80;11.05;;;;;;;18.73;25.29;100703.53;5032178;28;20033;-79